createdAt,value
2023-05-17T00:00:02.147Z,100002.28
2023-05-17T00:02:33.072Z,100020.78
2023-05-17T00:05:02.735Z,100009.88
2023-05-17T00:07:30.795Z,100009.19
2023-05-17T00:09:58.845Z,100004.81
2023-05-17T00:12:27.076Z,100003.66
2023-05-17T00:14:55.204Z,100001.81
2023-05-17T00:17:23.306Z,99973.19
2023-05-17T00:19:51.592Z,100006.50
2023-05-17T00:22:21.209Z,100003.81
2023-05-17T00:24:49.353Z,100004.81
2023-05-17T00:27:17.389Z,99999.44
2023-05-17T00:29:48.923Z,100002.13
2023-05-17T00:32:16.988Z,100003.94
2023-05-17T00:34:45.158Z,100006.78
2023-05-17T00:37:13.226Z,100014.88
2023-05-17T00:39:42.583Z,100011.31
2023-05-17T00:42:12.220Z,100010.47
2023-05-17T00:44:40.355Z,100004.25
2023-05-17T00:47:08.496Z,99998.16
2023-05-17T00:49:36.609Z,99999.03
2023-05-17T00:52:05.629Z,100007.09
2023-05-17T00:54:34.393Z,99995.94
2023-05-17T00:57:04.960Z,100002.84
2023-05-17T00:59:36.046Z,100008.91
2023-05-17T01:02:05.164Z,100003.72
2023-05-17T01:04:33.737Z,99974.78
2023-05-17T01:07:01.844Z,100005.38
2023-05-17T01:09:30.340Z,100000.00
2023-05-17T01:12:08.430Z,100006.22
2023-05-17T01:14:52.609Z,100006.22
2023-05-17T01:17:29.065Z,99955.69
2023-05-17T01:20:07.452Z,100003.72
2023-05-17T01:22:45.274Z,99997.47
2023-05-17T01:25:27.890Z,100001.03
2023-05-17T01:28:00.590Z,99996.63
2023-05-17T01:30:30.505Z,99999.31
2023-05-17T01:33:00.148Z,99996.63
2023-05-17T01:35:28.589Z,99982.09
2023-05-17T01:37:57.144Z,99989.59
2023-05-17T01:40:25.904Z,99988.56
2023-05-17T01:42:59.018Z,99983.34
2023-05-17T01:45:31.827Z,99986.88
2023-05-17T01:48:09.600Z,99981.66
2023-05-17T01:50:39.565Z,99951.16
2023-05-17T01:53:12.236Z,99987.03
2023-05-17T01:55:45.950Z,99977.56
2023-05-17T01:58:17.205Z,99981.94
2023-05-17T02:00:47.759Z,99980.09
2023-05-17T02:03:18.515Z,99970.78
2023-05-17T02:05:46.881Z,99975.00
2023-05-17T02:08:15.347Z,99982.94
2023-05-17T02:10:43.440Z,99979.41
2023-05-17T02:13:11.464Z,99983.78
2023-05-17T02:15:40.908Z,99980.25
2023-05-17T02:18:08.925Z,99976.72
2023-05-17T02:20:37.052Z,99974.03
2023-05-17T02:23:05.097Z,99976.84
2023-05-17T02:25:33.274Z,99978.72
2023-05-17T02:28:01.374Z,99981.41
2023-05-17T02:30:29.358Z,99975.19
2023-05-17T02:32:59.453Z,99978.56
2023-05-17T02:35:27.668Z,99974.16
2023-05-17T02:37:55.794Z,99968.78
2023-05-17T02:40:23.761Z,99964.44
2023-05-17T02:42:51.812Z,99972.63
2023-05-17T02:45:19.883Z,99965.56
2023-05-17T02:47:47.995Z,99978.00
2023-05-17T02:50:17.716Z,99976.31
2023-05-17T02:52:45.757Z,99971.94
2023-05-17T02:55:13.740Z,99980.16
2023-05-17T02:57:41.754Z,99973.91
2023-05-17T03:00:11.119Z,99940.06
2023-05-17T03:02:39.395Z,99980.28
2023-05-17T03:05:08.932Z,99974.06
2023-05-17T03:07:41.500Z,99982.13
2023-05-17T03:10:10.188Z,99974.06
2023-05-17T03:12:42.805Z,99982.25
2023-05-17T03:15:11.703Z,99971.13
2023-05-17T03:17:39.885Z,99978.72
2023-05-17T03:20:10.182Z,99971.69
2023-05-17T03:22:38.246Z,99979.88
2023-05-17T03:25:08.594Z,99978.88
2023-05-17T03:27:37.783Z,99979.88
2023-05-17T03:30:07.739Z,99981.69
2023-05-17T03:32:39.092Z,99982.72
2023-05-17T03:35:08.613Z,99982.84
2023-05-17T03:37:37.780Z,99955.41
2023-05-17T03:40:09.219Z,99982.00
2023-05-17T03:42:38.537Z,99973.22
2023-05-17T03:45:08.276Z,99967.88
2023-05-17T03:47:37.218Z,99975.91
2023-05-17T03:50:06.666Z,99975.66
2023-05-17T03:52:34.856Z,99980.59
2023-05-17T03:55:03.442Z,99968.03
2023-05-17T03:57:33.817Z,99968.03
2023-05-17T04:00:02.356Z,99958.25
2023-05-17T04:02:31.791Z,99965.50
2023-05-17T04:05:01.136Z,99955.72
2023-05-17T04:07:29.537Z,99960.25
2023-05-17T04:09:59.956Z,99955.88
2023-05-17T04:12:30.326Z,99959.28
2023-05-17T04:14:59.797Z,99951.22
2023-05-17T04:17:27.933Z,99960.13
2023-05-17T04:19:56.082Z,99945.28
2023-05-17T04:22:24.183Z,99966.47
2023-05-17T04:24:53.004Z,99977.22
2023-05-17T04:27:21.879Z,99977.22
2023-05-17T04:29:49.920Z,99975.50
2023-05-17T04:32:19.412Z,99959.41
2023-05-17T04:34:48.070Z,99947.84
2023-05-17T04:37:16.943Z,99928.19
2023-05-17T04:39:48.152Z,99938.31
2023-05-17T04:42:16.465Z,99940.91
2023-05-17T04:44:49.855Z,99942.00
2023-05-17T04:47:19.834Z,99946.13
2023-05-17T04:49:48.825Z,99951.75
2023-05-17T04:52:16.848Z,99947.22
2023-05-17T04:54:45.514Z,99940.16
2023-05-17T04:57:13.490Z,99947.22
2023-05-17T05:00:09.979Z,99859.78
2023-05-17T05:02:42.117Z,99943.00
2023-05-17T05:05:11.875Z,99946.53
2023-05-17T05:07:41.194Z,99932.84
2023-05-17T05:10:11.128Z,99949.06
2023-05-17T05:12:39.769Z,99933.13
2023-05-17T05:15:09.220Z,99946.38
2023-05-17T05:17:39.190Z,99957.03
2023-05-17T05:20:10.628Z,99957.72
2023-05-17T05:22:39.676Z,99961.38
2023-05-17T05:25:09.108Z,99963.94
2023-05-17T05:27:37.130Z,99965.91
2023-05-17T05:30:06.023Z,99966.75
2023-05-17T05:32:35.346Z,99974.09
2023-05-17T05:35:03.429Z,99971.41
2023-05-17T05:37:33.001Z,99977.66
2023-05-17T05:40:01.089Z,99979.59
2023-05-17T05:42:30.483Z,99983.28
2023-05-17T05:44:58.619Z,99985.97
2023-05-17T05:47:27.411Z,99978.91
2023-05-17T05:49:55.917Z,99985.13
2023-05-17T05:52:23.955Z,99978.19
2023-05-17T05:54:53.468Z,99985.13
2023-05-17T05:57:21.772Z,99985.28
2023-05-17T05:59:49.846Z,99989.78
2023-05-17T06:02:19.161Z,99988.94
2023-05-17T06:04:48.469Z,99982.59
2023-05-17T06:07:16.607Z,99986.25
2023-05-17T06:09:44.642Z,99983.41
2023-05-17T06:12:14.082Z,99981.44
2023-05-17T06:14:42.047Z,99976.06
2023-05-17T06:17:09.938Z,99976.91
2023-05-17T06:19:38.061Z,99974.22
2023-05-17T06:22:06.372Z,99962.94
2023-05-17T06:24:34.530Z,99961.63
2023-05-17T06:27:05.298Z,99929.34
2023-05-17T06:29:34.861Z,99959.13
2023-05-17T06:32:02.861Z,99966.75
2023-05-17T06:34:30.957Z,99983.56
2023-05-17T06:36:59.957Z,99982.31
2023-05-17T06:39:27.967Z,99983.16
2023-05-17T06:41:56.115Z,99986.53
2023-05-17T06:44:24.131Z,99992.59
2023-05-17T06:46:53.574Z,99978.19
2023-05-17T06:49:21.650Z,99973.63
2023-05-17T06:51:49.980Z,99992.16
2023-05-17T06:54:19.642Z,99994.72
2023-05-17T06:56:47.806Z,100004.44
2023-05-17T06:59:16.662Z,100013.25
2023-05-17T07:01:44.753Z,100013.94
2023-05-17T07:04:14.372Z,100015.59
2023-05-17T07:06:42.506Z,100016.63
2023-05-17T07:09:10.483Z,100031.72
2023-05-17T07:11:38.441Z,100033.44
2023-05-17T07:14:06.642Z,100033.28
2023-05-17T07:16:34.838Z,100034.00
2023-05-17T07:19:02.926Z,100054.47
2023-05-17T07:21:33.188Z,100052.66
2023-05-17T07:24:01.422Z,100066.09
2023-05-17T07:26:29.505Z,100077.81
2023-05-17T07:28:57.416Z,100081.50
2023-05-17T07:31:25.663Z,100081.50
2023-05-17T07:33:53.837Z,100087.00
2023-05-17T07:36:21.812Z,100092.81
2023-05-17T07:38:51.627Z,100103.44
2023-05-17T07:41:22.484Z,100106.41
2023-05-17T07:43:51.033Z,100108.53
2023-05-17T07:46:19.254Z,100121.09
2023-05-17T07:48:47.435Z,100135.53
2023-05-17T07:51:15.412Z,100143.72
2023-05-17T07:53:43.401Z,100151.09
2023-05-17T07:56:12.643Z,100144.16
2023-05-17T07:58:40.831Z,100157.75
2023-05-17T08:01:09.697Z,100154.31
2023-05-17T08:03:38.124Z,100163.50
2023-05-17T08:06:06.425Z,100155.63
2023-05-17T08:08:34.457Z,100164.66
2023-05-17T08:11:02.505Z,100171.88
2023-05-17T08:13:31.843Z,100179.09
2023-05-17T08:16:12.696Z,100184.53
2023-05-17T08:18:42.873Z,100182.88
2023-05-17T08:21:11.447Z,100187.38
2023-05-17T08:23:39.839Z,100197.28
2023-05-17T08:26:07.968Z,100217.91
2023-05-17T08:28:37.380Z,100226.81
2023-05-17T08:31:05.425Z,100228.38
2023-05-17T08:33:33.590Z,100237.72
2023-05-17T08:36:04.215Z,100241.38
2023-05-17T08:38:32.262Z,100246.03
2023-05-17T08:41:00.291Z,100251.69
2023-05-17T08:43:30.918Z,100255.34
2023-05-17T08:46:00.508Z,100243.00
2023-05-17T08:48:31.294Z,100284.06
2023-05-17T08:51:00.093Z,100284.16
2023-05-17T08:53:28.390Z,100287.84
2023-05-17T08:56:00.639Z,100288.94
2023-05-17T08:58:32.365Z,100294.47
2023-05-17T09:01:04.177Z,100295.75
2023-05-17T09:03:36.073Z,100303.81
2023-05-17T09:06:04.806Z,100311.84
2023-05-17T09:08:32.934Z,100308.72
2023-05-17T09:11:00.898Z,100309.44
2023-05-17T09:13:28.890Z,100310.41
2023-05-17T09:15:57.174Z,100313.09
2023-05-17T09:18:32.711Z,100310.41
2023-05-17T09:21:04.808Z,100313.50
2023-05-17T09:23:34.002Z,100324.94
2023-05-17T09:26:06.212Z,100326.66
2023-05-17T09:28:39.476Z,100333.88
2023-05-17T09:31:08.762Z,100336.66
2023-05-17T09:33:44.409Z,100341.91
2023-05-17T09:36:18.351Z,100349.97
2023-05-17T09:38:54.604Z,100360.81
2023-05-17T09:41:23.455Z,100364.63
2023-05-17T09:43:51.478Z,100378.91
2023-05-17T09:46:21.171Z,100391.47
2023-05-17T09:48:55.223Z,100397.84
2023-05-17T09:51:33.629Z,100398.97
2023-05-17T09:54:02.474Z,100403.72
2023-05-17T09:56:31.058Z,100384.09
2023-05-17T09:58:59.123Z,100425.22
2023-05-17T10:01:29.211Z,100422.53
2023-05-17T10:04:01.312Z,100412.91
2023-05-17T10:06:44.175Z,100416.44
2023-05-17T10:09:15.683Z,100424.75
2023-05-17T10:11:47.756Z,100426.53
2023-05-17T10:14:22.807Z,100433.31
2023-05-17T10:16:53.075Z,100443.94
2023-05-17T10:19:23.302Z,100451.13
2023-05-17T10:21:52.600Z,100445.91
2023-05-17T10:24:22.079Z,100396.75
2023-05-17T10:26:52.000Z,100445.31
2023-05-17T10:29:21.523Z,100434.63
2023-05-17T10:31:51.967Z,100439.22
2023-05-17T10:34:21.158Z,100446.56
2023-05-17T10:36:51.373Z,100451.19
2023-05-17T10:39:20.200Z,100460.22
2023-05-17T10:41:53.030Z,100459.50
2023-05-17T10:44:21.947Z,100465.00
2023-05-17T10:46:54.835Z,100471.22
2023-05-17T10:49:26.057Z,100474.88
2023-05-17T10:51:55.819Z,100475.00
2023-05-17T10:54:35.787Z,100488.44
2023-05-17T10:57:08.452Z,100482.47
2023-05-17T10:59:36.999Z,100499.41
2023-05-17T11:02:06.355Z,100497.59
2023-05-17T11:04:36.729Z,100501.25
2023-05-17T11:07:28.090Z,100504.91
2023-05-17T11:10:06.079Z,100510.28
2023-05-17T11:12:38.505Z,100517.59
2023-05-17T11:15:10.545Z,100523.81
2023-05-17T11:17:50.919Z,100514.78
2023-05-17T11:20:33.776Z,100521.00
2023-05-17T11:23:05.372Z,100525.63
2023-05-17T11:25:35.744Z,100534.53
2023-05-17T11:28:09.045Z,100539.81
2023-05-17T11:30:42.422Z,100540.75
2023-05-17T11:33:24.807Z,100537.69
2023-05-17T11:35:57.781Z,100542.81
2023-05-17T11:38:32.448Z,100553.47
2023-05-17T11:41:26.475Z,100532.25
2023-05-17T11:43:55.731Z,100565.25
2023-05-17T11:46:25.013Z,100522.63
2023-05-17T11:48:55.161Z,100577.81
2023-05-17T11:51:25.214Z,100583.28
2023-05-17T11:53:56.671Z,100575.25
2023-05-17T11:56:35.676Z,100566.38
2023-05-17T11:59:10.476Z,100592.59
2023-05-17T12:01:45.943Z,100592.44
2023-05-17T12:04:14.414Z,100566.53
2023-05-17T12:06:42.762Z,100609.53
2023-05-17T12:09:13.486Z,100617.59
2023-05-17T12:11:43.352Z,100618.44
2023-05-17T12:14:11.534Z,100628.31
2023-05-17T12:16:42.956Z,100631.84
2023-05-17T12:19:19.802Z,100640.88
2023-05-17T12:21:48.172Z,100644.41
2023-05-17T12:24:17.722Z,100649.06
2023-05-17T12:26:46.439Z,100661.38
2023-05-17T12:29:15.990Z,100665.88
2023-05-17T12:31:46.762Z,100666.72
2023-05-17T12:34:16.748Z,100674.88
2023-05-17T12:36:45.628Z,100679.38
2023-05-17T12:39:15.487Z,100662.84
2023-05-17T12:41:45.305Z,100694.66
2023-05-17T12:44:16.449Z,100694.75
2023-05-17T12:46:45.664Z,100704.63
2023-05-17T12:49:13.811Z,100711.84
2023-05-17T12:51:43.539Z,100713.66
2023-05-17T12:54:12.836Z,100716.34
2023-05-17T12:56:44.644Z,100731.59
2023-05-17T12:59:17.772Z,100735.13
2023-05-17T13:01:47.719Z,100732.56
2023-05-17T13:04:17.284Z,100735.22
2023-05-17T13:06:46.652Z,100735.22
2023-05-17T13:09:15.465Z,100749.63
2023-05-17T13:11:45.209Z,100707.31
2023-05-17T13:14:13.621Z,100744.28
2023-05-17T13:16:42.874Z,100746.19
2023-05-17T13:19:15.286Z,100746.94
2023-05-17T13:21:43.404Z,100749.00
2023-05-17T13:24:11.687Z,100754.38
2023-05-17T13:26:39.812Z,100758.88
2023-05-17T13:29:09.188Z,100769.75
2023-05-17T13:31:37.235Z,100775.09
2023-05-17T13:34:05.283Z,100776.06
2023-05-17T13:36:33.457Z,100777.88
2023-05-17T13:39:02.110Z,100782.44
2023-05-17T13:41:30.384Z,100786.06
2023-05-17T13:43:58.480Z,100790.56
2023-05-17T13:46:27.874Z,100783.38
2023-05-17T13:48:56.158Z,100789.13
2023-05-17T13:51:25.474Z,100704.66
2023-05-17T13:53:53.556Z,100790.72
2023-05-17T13:56:22.294Z,100804.13
2023-05-17T13:58:50.645Z,100801.44
2023-05-17T14:01:18.936Z,100806.06
2023-05-17T14:03:48.299Z,100796.75
2023-05-17T14:06:16.408Z,100817.63
2023-05-17T14:08:46.231Z,100822.03
2023-05-17T14:11:14.487Z,100817.75
2023-05-17T14:13:42.728Z,100837.03
2023-05-17T14:16:10.755Z,100835.22
2023-05-17T14:18:38.884Z,100825.44
2023-05-17T14:21:09.127Z,100828.03
2023-05-17T14:23:37.555Z,100850.22
2023-05-17T14:26:07.341Z,100857.25
2023-05-17T14:28:38.001Z,100854.84
2023-05-17T14:31:07.544Z,100875.06
2023-05-17T14:33:37.557Z,100878.50
2023-05-17T14:36:06.189Z,100882.91
2023-05-17T14:38:35.826Z,100885.69
2023-05-17T14:41:06.603Z,100887.53
2023-05-17T14:43:34.632Z,100867.34
2023-05-17T14:46:02.716Z,100907.03
2023-05-17T14:48:31.716Z,100901.78
2023-05-17T14:50:59.746Z,100912.50
2023-05-17T14:53:29.163Z,100916.03
2023-05-17T14:55:58.977Z,100923.22
2023-05-17T14:58:27.299Z,100922.41
2023-05-17T15:01:04.709Z,100926.50
2023-05-17T15:03:38.714Z,100935.03
2023-05-17T15:06:10.146Z,100940.41
2023-05-17T15:08:39.989Z,100950.31
2023-05-17T15:11:10.893Z,100954.81
2023-05-17T15:13:38.988Z,100965.63
2023-05-17T15:16:07.744Z,100965.63
2023-05-17T15:18:36.628Z,100966.63
2023-05-17T15:21:04.866Z,100970.19
2023-05-17T15:23:32.899Z,100970.19
2023-05-17T15:26:00.955Z,100973.69
2023-05-17T15:28:30.599Z,100968.22
2023-05-17T15:31:02.630Z,100971.63
2023-05-17T15:33:32.170Z,100975.28
2023-05-17T15:36:00.294Z,100975.19
2023-05-17T15:38:28.332Z,100978.72
2023-05-17T15:41:03.792Z,100982.16
2023-05-17T15:43:34.394Z,100977.75
2023-05-17T15:46:02.803Z,100974.19
2023-05-17T15:48:31.037Z,100983.88
2023-05-17T15:50:59.448Z,100985.69
2023-05-17T15:53:28.952Z,100989.22
2023-05-17T15:55:57.430Z,101008.00
2023-05-17T15:58:27.902Z,100997.81
2023-05-17T16:00:57.340Z,101021.28
2023-05-17T16:03:25.456Z,101015.94
2023-05-17T16:05:53.460Z,101014.09
2023-05-17T16:08:21.788Z,101022.91
2023-05-17T16:10:49.928Z,101030.72
2023-05-17T16:13:17.925Z,101025.13
2023-05-17T16:15:46.004Z,101028.53
2023-05-17T16:18:15.665Z,101003.69
2023-05-17T16:20:43.796Z,101036.28
2023-05-17T16:23:12.565Z,101041.41
2023-05-17T16:25:40.500Z,101037.78
2023-05-17T16:28:08.983Z,101045.56
2023-05-17T16:30:37.454Z,101038.50
2023-05-17T16:33:08.265Z,101048.03
2023-05-17T16:35:37.941Z,101052.53
2023-05-17T16:38:05.892Z,101054.13
2023-05-17T16:40:34.165Z,101056.59
2023-05-17T16:43:02.208Z,101051.13
2023-05-17T16:45:30.395Z,101065.50
2023-05-17T16:47:58.686Z,101074.41
2023-05-17T16:50:26.799Z,101069.28
2023-05-17T16:52:56.234Z,101072.59
2023-05-17T16:55:24.237Z,101080.41
2023-05-17T16:57:52.404Z,101086.53
2023-05-17T17:00:21.465Z,101097.13
2023-05-17T17:02:49.597Z,101098.84
2023-05-17T17:05:17.773Z,101101.41
2023-05-17T17:07:47.294Z,101104.81
2023-05-17T17:10:16.789Z,101108.38
2023-05-17T17:12:44.769Z,101019.63
2023-05-17T17:15:13.073Z,101089.00
2023-05-17T17:17:41.146Z,101125.25
2023-05-17T17:20:10.396Z,101118.03
2023-05-17T17:22:38.359Z,101115.25
2023-05-17T17:25:07.529Z,101098.63
2023-05-17T17:27:36.921Z,101113.41
2023-05-17T17:30:05.524Z,101104.97
2023-05-17T17:32:33.828Z,101118.16
2023-05-17T17:35:01.884Z,101130.25
2023-05-17T17:37:29.911Z,101131.22
2023-05-17T17:39:57.811Z,101139.19
2023-05-17T17:42:26.012Z,101137.31
2023-05-17T17:44:55.753Z,101139.78
2023-05-17T17:47:23.868Z,101144.28
2023-05-17T17:49:51.914Z,101146.97
2023-05-17T17:52:19.900Z,101155.91
2023-05-17T17:54:47.941Z,101150.75
2023-05-17T17:57:16.844Z,101156.97
2023-05-17T17:59:45.109Z,101163.34
2023-05-17T18:02:14.656Z,101169.53
2023-05-17T18:04:42.810Z,101176.50
2023-05-17T18:07:12.387Z,101183.84
2023-05-17T18:09:40.392Z,101198.97
2023-05-17T18:12:09.138Z,101198.13
2023-05-17T18:14:37.145Z,101201.75
2023-05-17T18:17:05.459Z,101194.56
2023-05-17T18:19:34.924Z,101206.19
2023-05-17T18:22:03.110Z,101213.50
2023-05-17T18:24:32.064Z,101215.31
2023-05-17T18:27:00.177Z,101218.00
2023-05-17T18:29:28.154Z,101148.13
2023-05-17T18:31:56.218Z,101239.59
2023-05-17T18:34:25.620Z,101252.03
2023-05-17T18:36:55.203Z,101228.03
2023-05-17T18:39:23.182Z,101264.00
2023-05-17T18:41:51.310Z,101257.63
2023-05-17T18:44:20.112Z,101260.44
2023-05-17T18:46:48.615Z,101275.69
2023-05-17T18:49:16.952Z,101278.50
2023-05-17T18:51:45.161Z,101275.81
2023-05-17T18:54:14.789Z,101280.31
2023-05-17T18:56:42.900Z,101277.72
2023-05-17T18:59:11.009Z,101289.44
2023-05-17T19:01:39.466Z,101293.94
2023-05-17T19:04:07.629Z,101302.13
2023-05-17T19:06:35.890Z,101293.63
2023-05-17T19:09:04.079Z,101307.72
2023-05-17T19:11:33.514Z,101306.72
2023-05-17T19:14:01.568Z,101307.81
2023-05-17T19:16:30.194Z,101319.53
2023-05-17T19:18:58.365Z,101338.31
2023-05-17T19:21:26.400Z,101339.19
2023-05-17T19:23:54.351Z,101334.03
2023-05-17T19:26:22.703Z,101349.06
2023-05-17T19:28:52.268Z,101359.78
2023-05-17T19:31:20.308Z,101353.56
2023-05-17T19:33:48.309Z,101363.44
2023-05-17T19:36:16.360Z,101371.47
2023-05-17T19:38:44.375Z,101373.22
2023-05-17T19:41:12.337Z,101381.25
2023-05-17T19:43:40.302Z,101374.06
2023-05-17T19:46:11.562Z,101372.22
2023-05-17T19:48:39.993Z,101361.72
2023-05-17T19:51:07.957Z,101371.38
2023-05-17T19:53:48.309Z,101379.53
2023-05-17T19:56:21.406Z,101376.19
2023-05-17T19:58:49.459Z,101378.88
2023-05-17T20:01:18.918Z,101390.25
2023-05-17T20:03:46.979Z,101398.44
2023-05-17T20:06:15.253Z,101382.00
2023-05-17T20:08:43.491Z,101397.66
2023-05-17T20:11:11.531Z,101397.78
2023-05-17T20:13:40.465Z,101374.88
2023-05-17T20:16:12.953Z,101373.06
2023-05-17T20:18:43.878Z,101415.63
2023-05-17T20:21:12.841Z,101424.75
2023-05-17T20:23:40.989Z,101423.00
2023-05-17T20:26:16.125Z,101406.13
2023-05-17T20:28:44.452Z,101426.22
2023-05-17T20:31:12.467Z,101417.44
2023-05-17T20:33:44.089Z,101426.34
2023-05-17T20:36:14.434Z,101442.34
2023-05-17T20:38:43.522Z,101436.22
2023-05-17T20:41:11.650Z,101434.50
2023-05-17T20:43:39.726Z,101444.44
2023-05-17T20:46:09.940Z,101453.44
2023-05-17T20:48:38.922Z,101453.44
2023-05-17T20:51:08.264Z,101444.53
2023-05-17T20:53:36.393Z,101449.06
2023-05-17T20:56:04.459Z,101457.19
2023-05-17T20:58:32.841Z,101460.00
2023-05-17T21:01:01.851Z,101463.53
2023-05-17T21:03:33.173Z,101463.63
2023-05-17T21:06:02.302Z,101463.63
2023-05-17T21:08:32.068Z,101443.88
2023-05-17T21:11:00.174Z,101462.88
2023-05-17T21:13:28.712Z,101468.25
2023-05-17T21:15:57.246Z,101471.88
2023-05-17T21:18:25.444Z,101471.88
2023-05-17T21:20:55.127Z,101471.13
2023-05-17T21:23:23.234Z,101468.56
2023-05-17T21:25:52.608Z,101473.94
2023-05-17T21:28:20.657Z,101475.84
2023-05-17T21:30:48.729Z,101478.63
2023-05-17T21:33:16.862Z,101483.13
2023-05-17T21:35:45.050Z,101487.63
2023-05-17T21:38:13.092Z,101479.16
2023-05-17T21:40:41.709Z,101487.88
2023-05-17T21:43:11.307Z,101482.16
2023-05-17T21:45:39.793Z,101500.50
2023-05-17T21:48:07.927Z,101504.16
2023-05-17T21:50:36.163Z,101502.34
2023-05-17T21:53:04.176Z,101501.56
2023-05-17T21:55:36.983Z,101512.53
2023-05-17T21:58:16.358Z,101518.72
2023-05-17T22:00:44.430Z,101516.16
2023-05-17T22:03:12.643Z,101519.69
2023-05-17T22:05:40.876Z,101524.19
2023-05-17T22:08:09.013Z,101528.69
2023-05-17T22:10:37.046Z,101520.84
2023-05-17T22:13:06.178Z,101535.00
2023-05-17T22:15:35.929Z,101533.19
2023-05-17T22:18:05.172Z,101539.53
2023-05-17T22:20:33.344Z,101538.69
2023-05-17T22:23:01.500Z,101542.22
2023-05-17T22:25:29.587Z,101549.47
2023-05-17T22:27:57.637Z,101546.34
2023-05-17T22:30:25.625Z,101557.53
2023-05-17T22:32:57.200Z,101560.22
2023-05-17T22:35:25.766Z,101560.31
2023-05-17T22:37:53.826Z,101561.28
2023-05-17T22:40:21.949Z,101556.91
2023-05-17T22:42:51.849Z,101564.06
2023-05-17T22:45:19.857Z,101565.88
2023-05-17T22:47:47.901Z,101573.06
2023-05-17T22:50:19.121Z,101581.97
2023-05-17T22:52:47.281Z,101577.59
2023-05-17T22:55:15.255Z,101585.84
2023-05-17T22:57:43.429Z,101587.53
2023-05-17T23:00:12.385Z,101580.47
2023-05-17T23:02:40.527Z,101586.78
2023-05-17T23:05:09.135Z,101595.78
2023-05-17T23:07:38.758Z,101592.16
2023-05-17T23:10:08.849Z,101594.81
2023-05-17T23:12:37.587Z,101599.31
2023-05-17T23:15:06.340Z,101602.00
2023-05-17T23:17:35.530Z,101608.34
2023-05-17T23:20:08.232Z,101602.31
2023-05-17T23:22:36.393Z,101619.91
2023-05-17T23:25:06.862Z,101616.28
2023-05-17T23:27:35.349Z,101594.00
2023-05-17T23:30:04.771Z,101588.34
2023-05-17T23:32:34.008Z,101619.06
2023-05-17T23:35:04.194Z,101622.81
2023-05-17T23:37:32.515Z,101634.28
2023-05-17T23:40:00.690Z,101639.66
2023-05-17T23:42:30.231Z,101639.84
2023-05-17T23:44:58.711Z,101654.88
2023-05-17T23:47:28.140Z,101645.03
2023-05-17T23:49:56.403Z,101645.03
2023-05-17T23:52:24.451Z,101649.50
2023-05-17T23:54:57.239Z,101656.69
2023-05-17T23:57:25.576Z,101663.22
2023-05-17T23:59:54.969Z,101674.59
